sensor_id;sensor_type;location;lat;lon;timestamp;P1;durP1;ratioP1;P2;durP2;ratioP2
82473;SDS011;72350;53.232;6.556;2024-01-07T00:00:27;18.52;;;8.65;;
82473;SDS011;72350;53.232;6.556;2024-01-07T00:02:56;13.93;;;7.80;;
82473;SDS011;72350;53.232;6.556;2024-01-07T00:05:25;12.82;;;7.85;;
82473;SDS011;72350;53.232;6.556;2024-01-07T00:07:55;13.82;;;7.15;;
82473;SDS011;72350;53.232;6.556;2024-01-07T00:10:23;11.90;;;5.80;;
82473;SDS011;72350;53.232;6.556;2024-01-07T00:12:51;16.23;;;7.95;;
82473;SDS011;72350;53.232;6.556;2024-01-07T00:15:19;12.45;;;6.80;;
82473;SDS011;72350;53.232;6.556;2024-01-07T00:17:47;10.52;;;6.18;;
82473;SDS011;72350;53.232;6.556;2024-01-07T00:20:15;12.23;;;5.97;;
82473;SDS011;72350;53.232;6.556;2024-01-07T00:22:44;11.32;;;6.05;;
82473;SDS011;72350;53.232;6.556;2024-01-07T00:25:11;11.20;;;5.78;;
82473;SDS011;72350;53.232;6.556;2024-01-07T00:27:38;10.48;;;5.80;;
82473;SDS011;72350;53.232;6.556;2024-01-07T00:30:06;11.38;;;5.88;;
82473;SDS011;72350;53.232;6.556;2024-01-07T00:32:35;9.20;;;5.65;;
82473;SDS011;72350;53.232;6.556;2024-01-07T00:35:03;9.75;;;5.93;;
82473;SDS011;72350;53.232;6.556;2024-01-07T00:37:31;12.23;;;5.63;;
82473;SDS011;72350;53.232;6.556;2024-01-07T00:40:02;14.52;;;7.53;;
82473;SDS011;72350;53.232;6.556;2024-01-07T00:42:31;7.43;;;5.07;;
82473;SDS011;72350;53.232;6.556;2024-01-07T00:44:59;8.15;;;4.80;;
82473;SDS011;72350;53.232;6.556;2024-01-07T00:47:27;12.30;;;6.97;;
82473;SDS011;72350;53.232;6.556;2024-01-07T00:49:55;8.75;;;5.15;;
82473;SDS011;72350;53.232;6.556;2024-01-07T00:52:23;9.23;;;5.63;;
82473;SDS011;72350;53.232;6.556;2024-01-07T00:54:51;8.73;;;5.07;;
82473;SDS011;72350;53.232;6.556;2024-01-07T00:57:20;9.48;;;5.88;;
82473;SDS011;72350;53.232;6.556;2024-01-07T00:59:49;8.35;;;5.50;;
82473;SDS011;72350;53.232;6.556;2024-01-07T01:02:17;10.68;;;6.18;;
82473;SDS011;72350;53.232;6.556;2024-01-07T01:04:46;7.80;;;4.35;;
82473;SDS011;72350;53.232;6.556;2024-01-07T01:07:14;10.48;;;5.78;;
82473;SDS011;72350;53.232;6.556;2024-01-07T01:09:42;8.93;;;5.50;;
82473;SDS011;72350;53.232;6.556;2024-01-07T01:12:10;9.23;;;5.55;;
82473;SDS011;72350;53.232;6.556;2024-01-07T01:14:39;6.32;;;4.55;;
82473;SDS011;72350;53.232;6.556;2024-01-07T01:17:08;11.93;;;6.78;;
82473;SDS011;72350;53.232;6.556;2024-01-07T01:19:35;9.85;;;4.80;;
82473;SDS011;72350;53.232;6.556;2024-01-07T01:22:03;10.07;;;5.60;;
82473;SDS011;72350;53.232;6.556;2024-01-07T01:24:31;8.43;;;5.28;;
82473;SDS011;72350;53.232;6.556;2024-01-07T01:26:59;6.22;;;4.38;;
82473;SDS011;72350;53.232;6.556;2024-01-07T01:29:27;10.27;;;5.63;;
82473;SDS011;72350;53.232;6.556;2024-01-07T01:31:57;7.15;;;4.32;;
82473;SDS011;72350;53.232;6.556;2024-01-07T01:34:24;7.57;;;4.63;;
82473;SDS011;72350;53.232;6.556;2024-01-07T01:36:52;8.75;;;5.35;;
82473;SDS011;72350;53.232;6.556;2024-01-07T01:39:20;9.45;;;5.18;;
82473;SDS011;72350;53.232;6.556;2024-01-07T01:41:48;8.77;;;5.35;;
82473;SDS011;72350;53.232;6.556;2024-01-07T01:44:16;9.38;;;5.43;;
82473;SDS011;72350;53.232;6.556;2024-01-07T01:46:44;9.57;;;4.93;;
82473;SDS011;72350;53.232;6.556;2024-01-07T01:49:14;9.40;;;5.15;;
82473;SDS011;72350;53.232;6.556;2024-01-07T01:51:42;7.53;;;5.30;;
82473;SDS011;72350;53.232;6.556;2024-01-07T01:54:10;8.02;;;4.70;;
82473;SDS011;72350;53.232;6.556;2024-01-07T01:56:38;11.18;;;5.40;;
82473;SDS011;72350;53.232;6.556;2024-01-07T01:59:07;6.43;;;4.43;;
82473;SDS011;72350;53.232;6.556;2024-01-07T02:01:35;9.70;;;5.50;;
82473;SDS011;72350;53.232;6.556;2024-01-07T02:04:03;6.65;;;5.05;;
82473;SDS011;72350;53.232;6.556;2024-01-07T02:06:33;7.95;;;4.80;;
82473;SDS011;72350;53.232;6.556;2024-01-07T02:09:01;7.93;;;4.65;;
82473;SDS011;72350;53.232;6.556;2024-01-07T02:11:30;7.30;;;4.25;;
82473;SDS011;72350;53.232;6.556;2024-01-07T02:13:57;7.97;;;4.30;;
82473;SDS011;72350;53.232;6.556;2024-01-07T02:16:24;8.30;;;4.70;;
82473;SDS011;72350;53.232;6.556;2024-01-07T02:18:52;5.22;;;3.63;;
82473;SDS011;72350;53.232;6.556;2024-01-07T02:21:20;5.18;;;3.85;;
82473;SDS011;72350;53.232;6.556;2024-01-07T02:23:49;7.45;;;3.88;;
82473;SDS011;72350;53.232;6.556;2024-01-07T02:26:19;8.73;;;4.38;;
82473;SDS011;72350;53.232;6.556;2024-01-07T02:28:46;6.15;;;4.32;;
82473;SDS011;72350;53.232;6.556;2024-01-07T02:31:14;7.50;;;3.65;;
82473;SDS011;72350;53.232;6.556;2024-01-07T02:33:42;6.13;;;4.07;;
82473;SDS011;72350;53.232;6.556;2024-01-07T02:36:10;6.50;;;3.72;;
82473;SDS011;72350;53.232;6.556;2024-01-07T02:38:38;8.20;;;4.32;;
82473;SDS011;72350;53.232;6.556;2024-01-07T02:41:06;5.78;;;4.07;;
82473;SDS011;72350;53.232;6.556;2024-01-07T02:43:35;7.00;;;4.05;;
82473;SDS011;72350;53.232;6.556;2024-01-07T02:46:02;6.75;;;4.03;;
82473;SDS011;72350;53.232;6.556;2024-01-07T02:48:31;7.10;;;3.75;;
82473;SDS011;72350;53.232;6.556;2024-01-07T02:50:59;5.25;;;3.60;;
82473;SDS011;72350;53.232;6.556;2024-01-07T02:53:29;6.35;;;3.38;;
82473;SDS011;72350;53.232;6.556;2024-01-07T02:55:57;7.10;;;3.55;;
82473;SDS011;72350;53.232;6.556;2024-01-07T02:58:25;9.35;;;3.55;;
82473;SDS011;72350;53.232;6.556;2024-01-07T03:00:54;4.70;;;3.13;;
82473;SDS011;72350;53.232;6.556;2024-01-07T03:03:22;6.97;;;3.58;;
82473;SDS011;72350;53.232;6.556;2024-01-07T03:05:50;6.07;;;4.43;;
82473;SDS011;72350;53.232;6.556;2024-01-07T03:08:18;7.47;;;3.08;;
82473;SDS011;72350;53.232;6.556;2024-01-07T03:10:45;6.20;;;3.05;;
82473;SDS011;72350;53.232;6.556;2024-01-07T03:13:13;5.13;;;3.05;;
82473;SDS011;72350;53.232;6.556;2024-01-07T03:15:41;3.97;;;2.83;;
82473;SDS011;72350;53.232;6.556;2024-01-07T03:18:10;6.13;;;2.83;;
82473;SDS011;72350;53.232;6.556;2024-01-07T03:20:38;6.13;;;2.92;;
82473;SDS011;72350;53.232;6.556;2024-01-07T03:23:06;5.30;;;2.58;;
82473;SDS011;72350;53.232;6.556;2024-01-07T03:25:34;5.03;;;2.75;;
82473;SDS011;72350;53.232;6.556;2024-01-07T03:28:02;4.65;;;2.65;;
82473;SDS011;72350;53.232;6.556;2024-01-07T03:30:29;4.30;;;2.25;;
82473;SDS011;72350;53.232;6.556;2024-01-07T03:32:57;7.95;;;2.72;;
82473;SDS011;72350;53.232;6.556;2024-01-07T03:35:27;3.75;;;2.40;;
82473;SDS011;72350;53.232;6.556;2024-01-07T03:37:55;8.18;;;2.80;;
82473;SDS011;72350;53.232;6.556;2024-01-07T03:40:22;4.55;;;2.40;;
82473;SDS011;72350;53.232;6.556;2024-01-07T03:42:50;3.63;;;2.38;;
82473;SDS011;72350;53.232;6.556;2024-01-07T03:45:18;3.63;;;2.40;;
82473;SDS011;72350;53.232;6.556;2024-01-07T03:47:46;6.53;;;2.35;;
82473;SDS011;72350;53.232;6.556;2024-01-07T03:50:14;6.18;;;3.10;;
82473;SDS011;72350;53.232;6.556;2024-01-07T03:52:43;6.05;;;4.13;;
82473;SDS011;72350;53.232;6.556;2024-01-07T03:55:11;5.05;;;2.72;;
82473;SDS011;72350;53.232;6.556;2024-01-07T03:57:39;5.47;;;3.13;;
82473;SDS011;72350;53.232;6.556;2024-01-07T04:00:07;4.68;;;2.40;;
82473;SDS011;72350;53.232;6.556;2024-01-07T04:02:36;5.65;;;2.72;;
82473;SDS011;72350;53.232;6.556;2024-01-07T04:05:04;7.53;;;2.50;;
82473;SDS011;72350;53.232;6.556;2024-01-07T04:07:33;5.47;;;2.42;;
82473;SDS011;72350;53.232;6.556;2024-01-07T04:10:03;6.30;;;2.30;;
82473;SDS011;72350;53.232;6.556;2024-01-07T04:12:32;1.90;;;1.45;;
82473;SDS011;72350;53.232;6.556;2024-01-07T04:14:59;5.40;;;2.42;;
82473;SDS011;72350;53.232;6.556;2024-01-07T04:17:27;3.88;;;2.33;;
82473;SDS011;72350;53.232;6.556;2024-01-07T04:19:55;3.70;;;2.03;;
82473;SDS011;72350;53.232;6.556;2024-01-07T04:22:23;5.35;;;2.65;;
82473;SDS011;72350;53.232;6.556;2024-01-07T04:24:51;3.28;;;2.33;;
82473;SDS011;72350;53.232;6.556;2024-01-07T04:27:20;4.70;;;1.95;;
82473;SDS011;72350;53.232;6.556;2024-01-07T04:29:48;5.53;;;2.10;;
82473;SDS011;72350;53.232;6.556;2024-01-07T04:32:16;3.95;;;2.03;;
82473;SDS011;72350;53.232;6.556;2024-01-07T04:34:44;6.13;;;1.85;;
82473;SDS011;72350;53.232;6.556;2024-01-07T04:37:12;4.03;;;2.20;;
82473;SDS011;72350;53.232;6.556;2024-01-07T04:39:39;2.90;;;1.95;;
82473;SDS011;72350;53.232;6.556;2024-01-07T04:42:07;5.43;;;1.92;;
82473;SDS011;72350;53.232;6.556;2024-01-07T04:44:40;7.10;;;1.85;;
82473;SDS011;72350;53.232;6.556;2024-01-07T04:47:22;6.80;;;1.77;;
82473;SDS011;72350;53.232;6.556;2024-01-07T04:49:50;3.58;;;1.55;;
82473;SDS011;72350;53.232;6.556;2024-01-07T04:52:18;4.38;;;1.75;;
82473;SDS011;72350;53.232;6.556;2024-01-07T04:54:46;6.43;;;1.33;;
82473;SDS011;72350;53.232;6.556;2024-01-07T04:57:14;3.15;;;1.60;;
82473;SDS011;72350;53.232;6.556;2024-01-07T04:59:43;3.22;;;1.80;;
82473;SDS011;72350;53.232;6.556;2024-01-07T05:02:11;3.60;;;1.40;;
82473;SDS011;72350;53.232;6.556;2024-01-07T05:04:39;3.10;;;1.33;;
82473;SDS011;72350;53.232;6.556;2024-01-07T05:07:07;6.18;;;1.55;;
82473;SDS011;72350;53.232;6.556;2024-01-07T05:09:35;3.13;;;1.30;;
82473;SDS011;72350;53.232;6.556;2024-01-07T05:12:03;3.60;;;1.55;;
82473;SDS011;72350;53.232;6.556;2024-01-07T05:14:31;4.40;;;1.63;;
82473;SDS011;72350;53.232;6.556;2024-01-07T05:17:00;4.68;;;1.50;;
82473;SDS011;72350;53.232;6.556;2024-01-07T05:19:28;1.73;;;1.10;;
82473;SDS011;72350;53.232;6.556;2024-01-07T05:21:56;1.65;;;1.10;;
82473;SDS011;72350;53.232;6.556;2024-01-07T05:24:24;4.85;;;1.35;;
82473;SDS011;72350;53.232;6.556;2024-01-07T05:26:52;2.03;;;1.20;;
82473;SDS011;72350;53.232;6.556;2024-01-07T05:29:20;2.47;;;1.65;;
82473;SDS011;72350;53.232;6.556;2024-01-07T05:31:48;3.40;;;1.20;;
82473;SDS011;72350;53.232;6.556;2024-01-07T05:34:17;2.60;;;1.23;;
82473;SDS011;72350;53.232;6.556;2024-01-07T05:36:46;1.75;;;1.33;;
82473;SDS011;72350;53.232;6.556;2024-01-07T05:39:13;4.00;;;1.40;;
82473;SDS011;72350;53.232;6.556;2024-01-07T05:41:41;3.45;;;1.13;;
82473;SDS011;72350;53.232;6.556;2024-01-07T05:44:09;6.05;;;1.50;;
82473;SDS011;72350;53.232;6.556;2024-01-07T05:46:38;3.28;;;1.17;;
82473;SDS011;72350;53.232;6.556;2024-01-07T05:49:06;3.17;;;1.10;;
82473;SDS011;72350;53.232;6.556;2024-01-07T05:51:39;2.67;;;1.45;;
82473;SDS011;72350;53.232;6.556;2024-01-07T05:56:38;2.03;;;1.10;;
82473;SDS011;72350;53.232;6.556;2024-01-07T05:59:06;2.20;;;1.10;;
82473;SDS011;72350;53.232;6.556;2024-01-07T06:01:34;2.08;;;1.20;;
82473;SDS011;72350;53.232;6.556;2024-01-07T06:04:02;4.13;;;1.15;;
82473;SDS011;72350;53.232;6.556;2024-01-07T06:06:30;2.70;;;1.20;;
82473;SDS011;72350;53.232;6.556;2024-01-07T06:09:01;2.75;;;1.20;;
82473;SDS011;72350;53.232;6.556;2024-01-07T06:11:30;1.95;;;1.08;;
82473;SDS011;72350;53.232;6.556;2024-01-07T06:13:58;7.28;;;1.25;;
82473;SDS011;72350;53.232;6.556;2024-01-07T06:16:26;3.90;;;1.27;;
82473;SDS011;72350;53.232;6.556;2024-01-07T06:18:54;3.33;;;1.30;;
82473;SDS011;72350;53.232;6.556;2024-01-07T06:21:21;2.08;;;1.15;;
82473;SDS011;72350;53.232;6.556;2024-01-07T06:23:49;5.07;;;1.33;;
82473;SDS011;72350;53.232;6.556;2024-01-07T06:26:18;3.55;;;1.48;;
82473;SDS011;72350;53.232;6.556;2024-01-07T06:28:46;2.10;;;1.13;;
82473;SDS011;72350;53.232;6.556;2024-01-07T06:31:14;2.88;;;1.15;;
82473;SDS011;72350;53.232;6.556;2024-01-07T06:33:42;3.85;;;1.52;;
82473;SDS011;72350;53.232;6.556;2024-01-07T06:36:10;1.65;;;1.15;;
82473;SDS011;72350;53.232;6.556;2024-01-07T06:38:38;1.13;;;0.80;;
82473;SDS011;72350;53.232;6.556;2024-01-07T06:41:06;1.83;;;0.85;;
82473;SDS011;72350;53.232;6.556;2024-01-07T06:43:35;1.52;;;1.00;;
82473;SDS011;72350;53.232;6.556;2024-01-07T06:46:03;1.15;;;0.88;;
82473;SDS011;72350;53.232;6.556;2024-01-07T06:48:31;3.83;;;1.00;;
82473;SDS011;72350;53.232;6.556;2024-01-07T06:50:59;2.17;;;1.17;;
82473;SDS011;72350;53.232;6.556;2024-01-07T06:53:27;2.33;;;0.82;;
82473;SDS011;72350;53.232;6.556;2024-01-07T06:55:55;4.20;;;1.10;;
82473;SDS011;72350;53.232;6.556;2024-01-07T06:58:23;2.25;;;0.73;;
82473;SDS011;72350;53.232;6.556;2024-01-07T07:00:52;2.25;;;0.82;;
82473;SDS011;72350;53.232;6.556;2024-01-07T07:03:20;2.30;;;1.13;;
82473;SDS011;72350;53.232;6.556;2024-01-07T07:05:47;1.27;;;0.90;;
82473;SDS011;72350;53.232;6.556;2024-01-07T07:08:16;2.15;;;0.88;;
82473;SDS011;72350;53.232;6.556;2024-01-07T07:10:43;3.22;;;0.90;;
82473;SDS011;72350;53.232;6.556;2024-01-07T07:13:12;3.50;;;0.82;;
82473;SDS011;72350;53.232;6.556;2024-01-07T07:15:40;3.70;;;1.10;;
82473;SDS011;72350;53.232;6.556;2024-01-07T07:18:10;3.65;;;1.00;;
82473;SDS011;72350;53.232;6.556;2024-01-07T07:20:38;3.88;;;1.00;;
82473;SDS011;72350;53.232;6.556;2024-01-07T07:23:06;1.67;;;0.73;;
82473;SDS011;72350;53.232;6.556;2024-01-07T07:25:34;1.88;;;0.70;;
82473;SDS011;72350;53.232;6.556;2024-01-07T07:28:01;1.30;;;0.80;;
82473;SDS011;72350;53.232;6.556;2024-01-07T07:30:29;2.83;;;1.00;;
82473;SDS011;72350;53.232;6.556;2024-01-07T07:32:58;0.95;;;0.80;;
82473;SDS011;72350;53.232;6.556;2024-01-07T07:35:27;5.85;;;1.02;;
82473;SDS011;72350;53.232;6.556;2024-01-07T07:37:55;5.57;;;0.77;;
82473;SDS011;72350;53.232;6.556;2024-01-07T07:40:23;1.73;;;0.80;;
82473;SDS011;72350;53.232;6.556;2024-01-07T07:42:51;2.75;;;1.30;;
82473;SDS011;72350;53.232;6.556;2024-01-07T07:45:19;2.38;;;1.25;;
82473;SDS011;72350;53.232;6.556;2024-01-07T07:47:47;1.92;;;0.80;;
82473;SDS011;72350;53.232;6.556;2024-01-07T07:50:15;3.70;;;1.10;;
82473;SDS011;72350;53.232;6.556;2024-01-07T07:52:44;2.20;;;1.00;;
82473;SDS011;72350;53.232;6.556;2024-01-07T07:55:12;1.33;;;1.20;;
82473;SDS011;72350;53.232;6.556;2024-01-07T07:57:40;1.92;;;1.15;;
82473;SDS011;72350;53.232;6.556;2024-01-07T08:00:08;3.10;;;1.00;;
82473;SDS011;72350;53.232;6.556;2024-01-07T08:02:39;5.90;;;1.60;;
82473;SDS011;72350;53.232;6.556;2024-01-07T08:05:07;2.03;;;1.52;;
82473;SDS011;72350;53.232;6.556;2024-01-07T08:07:35;3.65;;;1.20;;
82473;SDS011;72350;53.232;6.556;2024-01-07T08:10:06;2.97;;;0.90;;
82473;SDS011;72350;53.232;6.556;2024-01-07T08:12:35;3.30;;;1.67;;
82473;SDS011;72350;53.232;6.556;2024-01-07T08:15:03;2.63;;;1.30;;
82473;SDS011;72350;53.232;6.556;2024-01-07T08:17:32;1.30;;;1.05;;
82473;SDS011;72350;53.232;6.556;2024-01-07T08:20:00;2.15;;;1.15;;
82473;SDS011;72350;53.232;6.556;2024-01-07T08:22:30;2.50;;;1.20;;
82473;SDS011;72350;53.232;6.556;2024-01-07T08:24:58;2.78;;;1.52;;
82473;SDS011;72350;53.232;6.556;2024-01-07T08:27:27;2.60;;;1.05;;
82473;SDS011;72350;53.232;6.556;2024-01-07T08:29:55;5.78;;;2.60;;
82473;SDS011;72350;53.232;6.556;2024-01-07T08:32:23;2.17;;;0.90;;
82473;SDS011;72350;53.232;6.556;2024-01-07T08:34:51;4.13;;;1.38;;
82473;SDS011;72350;53.232;6.556;2024-01-07T08:37:19;1.02;;;0.90;;
82473;SDS011;72350;53.232;6.556;2024-01-07T08:40:05;2.85;;;0.90;;
82473;SDS011;72350;53.232;6.556;2024-01-07T08:42:37;1.33;;;1.00;;
82473;SDS011;72350;53.232;6.556;2024-01-07T08:45:05;3.80;;;1.35;;
82473;SDS011;72350;53.232;6.556;2024-01-07T08:47:34;2.63;;;1.17;;
82473;SDS011;72350;53.232;6.556;2024-01-07T08:50:08;3.85;;;1.70;;
82473;SDS011;72350;53.232;6.556;2024-01-07T08:52:36;4.50;;;1.55;;
82473;SDS011;72350;53.232;6.556;2024-01-07T08:55:04;5.38;;;0.95;;
82473;SDS011;72350;53.232;6.556;2024-01-07T08:57:33;2.15;;;1.10;;
82473;SDS011;72350;53.232;6.556;2024-01-07T09:00:03;2.67;;;1.20;;
82473;SDS011;72350;53.232;6.556;2024-01-07T09:02:34;1.95;;;1.25;;
82473;SDS011;72350;53.232;6.556;2024-01-07T09:05:06;4.70;;;2.22;;
82473;SDS011;72350;53.232;6.556;2024-01-07T09:07:34;3.63;;;1.10;;
82473;SDS011;72350;53.232;6.556;2024-01-07T09:10:02;3.83;;;0.93;;
82473;SDS011;72350;53.232;6.556;2024-01-07T09:15:04;2.10;;;0.90;;
82473;SDS011;72350;53.232;6.556;2024-01-07T09:17:34;2.03;;;1.00;;
82473;SDS011;72350;53.232;6.556;2024-01-07T09:20:03;3.22;;;1.17;;
82473;SDS011;72350;53.232;6.556;2024-01-07T09:22:33;3.70;;;1.00;;
82473;SDS011;72350;53.232;6.556;2024-01-07T09:25:02;1.92;;;1.30;;
82473;SDS011;72350;53.232;6.556;2024-01-07T09:27:30;4.45;;;1.67;;
82473;SDS011;72350;53.232;6.556;2024-01-07T09:29:59;3.72;;;1.60;;
82473;SDS011;72350;53.232;6.556;2024-01-07T09:32:29;4.20;;;1.60;;
82473;SDS011;72350;53.232;6.556;2024-01-07T09:34:58;3.90;;;1.20;;
82473;SDS011;72350;53.232;6.556;2024-01-07T09:37:26;7.10;;;2.10;;
82473;SDS011;72350;53.232;6.556;2024-01-07T09:39:54;4.82;;;1.33;;
82473;SDS011;72350;53.232;6.556;2024-01-07T09:42:22;4.35;;;1.50;;
82473;SDS011;72350;53.232;6.556;2024-01-07T09:44:50;2.83;;;1.80;;
82473;SDS011;72350;53.232;6.556;2024-01-07T09:47:18;4.75;;;1.58;;
82473;SDS011;72350;53.232;6.556;2024-01-07T09:49:47;5.90;;;2.00;;
82473;SDS011;72350;53.232;6.556;2024-01-07T09:52:15;3.80;;;1.80;;
82473;SDS011;72350;53.232;6.556;2024-01-07T09:54:44;4.43;;;2.63;;
82473;SDS011;72350;53.232;6.556;2024-01-07T09:57:15;4.43;;;1.70;;
82473;SDS011;72350;53.232;6.556;2024-01-07T09:59:43;3.50;;;1.60;;
82473;SDS011;72350;53.232;6.556;2024-01-07T10:02:13;2.42;;;1.77;;
82473;SDS011;72350;53.232;6.556;2024-01-07T10:04:43;1.77;;;1.55;;
82473;SDS011;72350;53.232;6.556;2024-01-07T10:07:15;2.85;;;1.45;;
82473;SDS011;72350;53.232;6.556;2024-01-07T10:09:43;2.33;;;1.58;;
82473;SDS011;72350;53.232;6.556;2024-01-07T10:12:11;3.35;;;1.77;;
82473;SDS011;72350;53.232;6.556;2024-01-07T10:14:39;4.85;;;1.73;;
82473;SDS011;72350;53.232;6.556;2024-01-07T10:17:17;2.80;;;1.67;;
82473;SDS011;72350;53.232;6.556;2024-01-07T10:19:45;2.25;;;1.52;;
82473;SDS011;72350;53.232;6.556;2024-01-07T10:22:14;5.15;;;2.05;;
82473;SDS011;72350;53.232;6.556;2024-01-07T10:24:43;4.90;;;2.13;;
82473;SDS011;72350;53.232;6.556;2024-01-07T10:27:11;4.13;;;1.25;;
82473;SDS011;72350;53.232;6.556;2024-01-07T10:29:39;4.45;;;1.50;;
82473;SDS011;72350;53.232;6.556;2024-01-07T10:32:07;3.20;;;1.50;;
82473;SDS011;72350;53.232;6.556;2024-01-07T10:34:35;3.03;;;1.30;;
82473;SDS011;72350;53.232;6.556;2024-01-07T10:37:04;2.92;;;1.40;;
82473;SDS011;72350;53.232;6.556;2024-01-07T10:39:34;2.17;;;1.60;;
82473;SDS011;72350;53.232;6.556;2024-01-07T10:42:02;6.68;;;1.73;;
82473;SDS011;72350;53.232;6.556;2024-01-07T10:44:31;3.50;;;1.52;;
82473;SDS011;72350;53.232;6.556;2024-01-07T10:47:03;4.63;;;1.77;;
82473;SDS011;72350;53.232;6.556;2024-01-07T10:49:34;3.95;;;1.42;;
82473;SDS011;72350;53.232;6.556;2024-01-07T10:52:04;3.80;;;1.30;;
82473;SDS011;72350;53.232;6.556;2024-01-07T10:54:36;3.88;;;1.80;;
82473;SDS011;72350;53.232;6.556;2024-01-07T10:57:06;4.95;;;1.95;;
82473;SDS011;72350;53.232;6.556;2024-01-07T10:59:41;4.00;;;1.60;;
82473;SDS011;72350;53.232;6.556;2024-01-07T11:02:11;4.50;;;1.42;;
82473;SDS011;72350;53.232;6.556;2024-01-07T11:04:42;3.30;;;1.48;;
82473;SDS011;72350;53.232;6.556;2024-01-07T11:07:18;3.33;;;1.73;;
82473;SDS011;72350;53.232;6.556;2024-01-07T11:09:56;5.32;;;2.13;;
82473;SDS011;72350;53.232;6.556;2024-01-07T11:12:32;4.03;;;2.05;;
82473;SDS011;72350;53.232;6.556;2024-01-07T11:15:01;4.38;;;2.80;;
82473;SDS011;72350;53.232;6.556;2024-01-07T11:17:42;4.90;;;2.55;;
82473;SDS011;72350;53.232;6.556;2024-01-07T11:20:13;6.30;;;2.67;;
82473;SDS011;72350;53.232;6.556;2024-01-07T11:22:46;3.75;;;2.08;;
82473;SDS011;72350;53.232;6.556;2024-01-07T11:25:31;9.27;;;4.63;;
82473;SDS011;72350;53.232;6.556;2024-01-07T11:28:01;5.38;;;2.78;;
82473;SDS011;72350;53.232;6.556;2024-01-07T11:30:31;4.45;;;1.98;;
82473;SDS011;72350;53.232;6.556;2024-01-07T11:33:06;8.45;;;3.25;;
82473;SDS011;72350;53.232;6.556;2024-01-07T11:38:24;6.55;;;2.42;;
82473;SDS011;72350;53.232;6.556;2024-01-07T11:40:54;2.75;;;2.28;;
82473;SDS011;72350;53.232;6.556;2024-01-07T11:43:24;4.88;;;2.70;;
82473;SDS011;72350;53.232;6.556;2024-01-07T11:45:51;3.95;;;2.50;;
82473;SDS011;72350;53.232;6.556;2024-01-07T11:48:21;5.28;;;2.55;;
82473;SDS011;72350;53.232;6.556;2024-01-07T11:50:49;4.53;;;3.15;;
82473;SDS011;72350;53.232;6.556;2024-01-07T11:53:21;8.48;;;3.08;;
82473;SDS011;72350;53.232;6.556;2024-01-07T11:55:49;5.93;;;2.55;;
82473;SDS011;72350;53.232;6.556;2024-01-07T11:58:18;9.40;;;3.55;;
82473;SDS011;72350;53.232;6.556;2024-01-07T12:00:46;14.63;;;5.50;;
82473;SDS011;72350;53.232;6.556;2024-01-07T12:03:14;16.13;;;7.47;;
82473;SDS011;72350;53.232;6.556;2024-01-07T12:05:42;9.07;;;4.40;;
82473;SDS011;72350;53.232;6.556;2024-01-07T12:08:10;27.20;;;12.18;;
82473;SDS011;72350;53.232;6.556;2024-01-07T12:10:38;7.88;;;3.60;;
82473;SDS011;72350;53.232;6.556;2024-01-07T12:13:06;10.13;;;4.95;;
82473;SDS011;72350;53.232;6.556;2024-01-07T12:15:37;5.85;;;3.30;;
82473;SDS011;72350;53.232;6.556;2024-01-07T12:18:05;10.63;;;5.10;;
82473;SDS011;72350;53.232;6.556;2024-01-07T12:20:33;16.95;;;8.45;;
82473;SDS011;72350;53.232;6.556;2024-01-07T12:23:07;8.07;;;2.88;;
82473;SDS011;72350;53.232;6.556;2024-01-07T12:25:35;9.30;;;2.80;;
82473;SDS011;72350;53.232;6.556;2024-01-07T12:28:06;6.88;;;2.85;;
82473;SDS011;72350;53.232;6.556;2024-01-07T12:30:34;3.70;;;2.72;;
82473;SDS011;72350;53.232;6.556;2024-01-07T12:33:05;6.10;;;2.95;;
82473;SDS011;72350;53.232;6.556;2024-01-07T12:35:34;9.00;;;3.17;;
82473;SDS011;72350;53.232;6.556;2024-01-07T12:38:02;9.80;;;3.63;;
82473;SDS011;72350;53.232;6.556;2024-01-07T12:40:32;5.75;;;3.03;;
82473;SDS011;72350;53.232;6.556;2024-01-07T12:43:01;4.07;;;2.42;;
82473;SDS011;72350;53.232;6.556;2024-01-07T12:45:29;13.25;;;3.10;;
82473;SDS011;72350;53.232;6.556;2024-01-07T12:47:57;7.15;;;2.90;;
82473;SDS011;72350;53.232;6.556;2024-01-07T12:50:30;4.03;;;2.65;;
82473;SDS011;72350;53.232;6.556;2024-01-07T12:52:58;7.43;;;3.80;;
82473;SDS011;72350;53.232;6.556;2024-01-07T12:55:26;6.53;;;3.00;;
82473;SDS011;72350;53.232;6.556;2024-01-07T12:57:54;9.73;;;2.60;;
82473;SDS011;72350;53.232;6.556;2024-01-07T13:00:23;5.35;;;2.58;;
82473;SDS011;72350;53.232;6.556;2024-01-07T13:02:51;5.80;;;2.90;;
82473;SDS011;72350;53.232;6.556;2024-01-07T13:05:19;3.30;;;2.67;;
82473;SDS011;72350;53.232;6.556;2024-01-07T13:07:48;6.55;;;4.55;;
82473;SDS011;72350;53.232;6.556;2024-01-07T13:10:16;6.43;;;3.55;;
82473;SDS011;72350;53.232;6.556;2024-01-07T13:12:44;6.03;;;3.53;;
82473;SDS011;72350;53.232;6.556;2024-01-07T13:15:16;8.20;;;3.10;;
82473;SDS011;72350;53.232;6.556;2024-01-07T13:17:44;6.72;;;2.92;;
82473;SDS011;72350;53.232;6.556;2024-01-07T13:20:12;4.78;;;2.67;;
82473;SDS011;72350;53.232;6.556;2024-01-07T13:22:39;4.28;;;2.47;;
82473;SDS011;72350;53.232;6.556;2024-01-07T13:25:09;4.40;;;2.85;;
82473;SDS011;72350;53.232;6.556;2024-01-07T13:27:37;5.95;;;3.50;;
82473;SDS011;72350;53.232;6.556;2024-01-07T13:30:05;8.00;;;3.22;;
82473;SDS011;72350;53.232;6.556;2024-01-07T13:32:34;5.53;;;2.55;;
82473;SDS011;72350;53.232;6.556;2024-01-07T13:35:04;7.57;;;3.28;;
82473;SDS011;72350;53.232;6.556;2024-01-07T13:37:34;5.13;;;2.92;;
82473;SDS011;72350;53.232;6.556;2024-01-07T13:40:02;8.00;;;3.42;;
82473;SDS011;72350;53.232;6.556;2024-01-07T13:42:32;8.75;;;3.03;;
82473;SDS011;72350;53.232;6.556;2024-01-07T13:45:00;5.80;;;3.35;;
82473;SDS011;72350;53.232;6.556;2024-01-07T13:47:29;4.93;;;3.28;;
82473;SDS011;72350;53.232;6.556;2024-01-07T13:49:56;3.95;;;2.45;;
82473;SDS011;72350;53.232;6.556;2024-01-07T13:52:24;9.63;;;3.17;;
82473;SDS011;72350;53.232;6.556;2024-01-07T13:54:52;5.97;;;3.15;;
82473;SDS011;72350;53.232;6.556;2024-01-07T13:57:20;6.10;;;3.22;;
82473;SDS011;72350;53.232;6.556;2024-01-07T13:59:49;7.95;;;3.05;;
82473;SDS011;72350;53.232;6.556;2024-01-07T14:02:17;5.15;;;2.85;;
82473;SDS011;72350;53.232;6.556;2024-01-07T14:04:46;6.85;;;3.30;;
82473;SDS011;72350;53.232;6.556;2024-01-07T14:07:14;7.10;;;3.60;;
82473;SDS011;72350;53.232;6.556;2024-01-07T14:09:42;8.88;;;3.45;;
82473;SDS011;72350;53.232;6.556;2024-01-07T14:12:10;6.63;;;3.50;;
82473;SDS011;72350;53.232;6.556;2024-01-07T14:14:38;9.63;;;2.90;;
82473;SDS011;72350;53.232;6.556;2024-01-07T14:17:07;7.15;;;3.10;;
82473;SDS011;72350;53.232;6.556;2024-01-07T14:19:35;4.78;;;3.53;;
82473;SDS011;72350;53.232;6.556;2024-01-07T14:22:03;7.45;;;3.28;;
82473;SDS011;72350;53.232;6.556;2024-01-07T14:24:31;10.98;;;3.08;;
82473;SDS011;72350;53.232;6.556;2024-01-07T14:26:59;6.22;;;2.92;;
82473;SDS011;72350;53.232;6.556;2024-01-07T14:29:27;12.02;;;2.70;;
82473;SDS011;72350;53.232;6.556;2024-01-07T14:31:55;5.13;;;2.83;;
82473;SDS011;72350;53.232;6.556;2024-01-07T14:34:24;6.80;;;3.58;;
82473;SDS011;72350;53.232;6.556;2024-01-07T14:36:52;9.05;;;3.33;;
82473;SDS011;72350;53.232;6.556;2024-01-07T14:39:20;9.13;;;3.80;;
82473;SDS011;72350;53.232;6.556;2024-01-07T14:41:48;8.73;;;4.28;;
82473;SDS011;72350;53.232;6.556;2024-01-07T14:44:16;6.72;;;3.00;;
82473;SDS011;72350;53.232;6.556;2024-01-07T14:46:46;6.95;;;2.80;;
82473;SDS011;72350;53.232;6.556;2024-01-07T14:49:14;7.10;;;3.15;;
82473;SDS011;72350;53.232;6.556;2024-01-07T14:51:44;5.32;;;3.22;;
82473;SDS011;72350;53.232;6.556;2024-01-07T14:54:13;7.78;;;3.55;;
82473;SDS011;72350;53.232;6.556;2024-01-07T14:56:41;9.75;;;3.65;;
82473;SDS011;72350;53.232;6.556;2024-01-07T14:59:09;6.68;;;3.25;;
82473;SDS011;72350;53.232;6.556;2024-01-07T15:01:37;5.63;;;3.20;;